Harare, Zimbabwe

10:40 PM CAT on September 30, 2016 (GMT +0200)
Ballantyne Park | | Change Station

Elev 4970 ft 17.77 °S, 31.11 °E | Updated 15 minutes ago

Clear
Clear
66.2 °F
Feels Like 66.2 °F
N
1.2
Wind Variable Wind from NE

Today
High -- | Low -- °F
--% Chance of Precip.
Yesterday
High -- | Low -- °F
Precip. -- in
Pressure 30.18 in
Visibility -9999.0 miles
Clouds
Dew Point 42 °F
Humidity 42%
Rainfall Not available.
Snow Depth Not available.
5:38 AM 5:53 PM
Waning Crescent, 0% visible
METAR FVHA 302000Z 08007KT CAVOK 20/05 Q1022 NOSIG
Pressure 30.18 in
Visibility -9999.0 miles
Clouds
Dew Point 42 °F
Humidity 42%
Rainfall Not available.
Snow Depth Not available.
5:38 AM 5:53 PM
Waning Crescent, 0% visible
METAR FVHA 302000Z 08007KT CAVOK 20/05 Q1022 NOSIG

10-Day Weather Forecast

No radar image for this location.
×

Almanac

Astronomy

Sep. 30, 2016 Rise Set
Actual Time
Civil Twilight
Nautical Twilight
Astronomical Twilight
Moon
Length of Visible Light
Length of Day
Tomorrow will be .
, % of the Moon is Illuminated

Today's Extremes

Country Highs Country Lows

Community

WunderPhotos

Upload Photos

1,942,764 photos uploaded!

WunderBlog® & News

Nearby

Air Quality

  Air Quality AQ Index Pollutant
Not available.

Snow Depth

Station Depth Elevation

Earthquake Activity

City Distance Mag. Time & Date
Minimum magnitude displayed is 2.5.

Coastal Water Temperatures

Place Temperature

Stations

Nearby Weather Stations

Station Location Temp. Windchill Dew Point Humidity Wind Precip. Elev Updated Type